| time (UTC) | temp C | wind direction | speed KPH | gust KPH | rain 1hr cm | rain 24hr cm | rain mn cm | humidity % | barometer mb |
| 20260507114547 | 10 | 298 | 0.0 | 4.8 | 0.00 | 1.65 | 0.30 | 84 | 1006.5 |
| 20260507113048 | 8 | 275 | 1.6 | 6.4 | 0.00 | 1.65 | 0.30 | 90 | 1006.5 |
| 20260507111547 | 8 | 0 | 0.0 | 6.4 | 0.00 | 1.65 | 0.30 | 94 | 1006.5 |
| 20260507110047 | 7 | 0 | 0.0 | 0.0 | 0.00 | 1.65 | 0.30 | 98 | 1006.8 |
| 20260507104548 | 7 | 0 | 0.0 | 0.0 | 0.00 | 1.65 | 0.30 | 97 | 1006.8 |
| 20260507103045 | 7 | 0 | 0.0 | 0.0 | 0.00 | 1.65 | 0.30 | 96 | 1006.7 |
| 20260507101554 | 7 | 0 | 0.0 | 0.0 | 0.00 | 1.65 | 0.30 | 96 | 1006.6 |
| 20260507100045 | 7 | 0 | 0.0 | 0.0 | 0.00 | 1.65 | 0.30 | 96 | 1005.8 |
| 20260507094548 | 7 | 0 | 0.0 | 0.0 | 0.00 | 1.65 | 0.30 | 95 | 1005.4 |
| 20260507093052 | 7 | 0 | 0.0 | 0.0 | 0.00 | 1.65 | 0.30 | 96 | 1005.9 |
| 20260507091544 | 7 | 0 | 0.0 | 1.6 | 0.00 | 1.65 | 0.30 | 96 | 1005.9 |
| 20260507090041 | 7 | 0 | 1.6 | 3.2 | 0.00 | 1.65 | 0.30 | 96 | 1006.4 |
| 20260507084551 | 8 | 0 | 0.0 | 3.2 | 0.03 | 1.65 | 0.30 | 96 | 1006.0 |
| 20260507083046 | 8 | 321 | 0.0 | 4.8 | 0.03 | 1.65 | 0.30 | 95 | 1005.9 |
| 20260507081545 | 8 | 0 | 1.6 | 4.8 | 0.03 | 1.65 | 0.30 | 95 | 1005.7 |
| 20260507080045 | 8 | 9 | 1.6 | 9.7 | 0.03 | 1.65 | 0.30 | 96 | 1005.4 |
| 20260507074542 | 9 | 0 | 0.0 | 3.2 | 0.00 | 1.63 | 0.28 | 97 | 1005.6 |
| 20260507073048 | 9 | 0 | 0.0 | 3.2 | 0.00 | 1.63 | 0.28 | 97 | 1005.6 |
| 20260507071604 | 9 | 32 | 0.0 | 4.8 | 0.00 | 1.63 | 0.28 | 96 | 1005.2 |
| 20260507070046 | 9 | 0 | 0.0 | 4.8 | 0.00 | 1.63 | 0.28 | 96 | 1005.3 |
| 20260507064545 | 10 | 304 | 1.6 | 8.0 | 0.00 | 1.63 | 0.28 | 96 | 1004.8 |
| 20260507063045 | 10 | 0 | 1.6 | 4.8 | 0.00 | 1.63 | 0.28 | 97 | 1004.8 |
| 20260507061555 | 10 | 0 | 0.0 | 0.0 | 0.00 | 1.63 | 0.28 | 97 | 1004.6 |
| 20260507060049 | 10 | 0 | 0.0 | 0.0 | 0.03 | 1.63 | 0.28 | 97 | 1004.1 |
| 20260507054546 | 10 | 0 | 0.0 | 3.2 | 0.10 | 1.63 | 0.28 | 97 | 1004.4 |
| 20260507053111 | 10 | 0 | 0.0 | 3.2 | 0.20 | 1.63 | 0.28 | 97 | 1004.5 |
| 20260507051550 | 10 | 319 | 0.0 | 6.4 | 0.25 | 1.63 | 0.28 | 96 | 1004.8 |
| 20260507050048 | 10 | 294 | 0.0 | 6.4 | 0.25 | 1.60 | 0.25 | 96 | 1004.6 |
| 20260507044547 | 10 | 19 | 1.6 | 16.1 | 0.15 | 1.47 | 0.15 | 96 | 1004.9 |
| 20260507043047 | 11 | 0 | 4.8 | 12.9 | 0.10 | 1.42 | 0.08 | 96 | 1004.7 |
| 20260507041547 | 11 | 64 | 3.2 | 11.3 | 0.13 | 1.37 | 0.03 | 96 | 1004.3 |
| 20260507040046 | 11 | 54 | 3.2 | 11.3 | 0.10 | 1.32 | 0.00 | 98 | 1004.4 |
| 20260507034544 | 11 | 0 | 1.6 | 6.4 | 0.10 | 1.32 | 1.32 | 98 | 1004.4 |
| 20260507033050 | 11 | 0 | 0.0 | 8.0 | 0.10 | 1.32 | 1.32 | 98 | 1004.3 |
| 20260507031551 | 11 | 199 | 3.2 | 9.7 | 0.03 | 1.24 | 1.24 | 97 | 1004.0 |
| 20260507030047 | 11 | 215 | 3.2 | 6.4 | 0.05 | 1.24 | 1.24 | 98 | 1004.1 |
| 20260507024545 | 11 | 265 | 1.6 | 8.0 | 0.10 | 1.24 | 1.24 | 98 | 1003.9 |
| 20260507023041 | 11 | 193 | 1.6 | 16.1 | 0.15 | 1.22 | 1.22 | 97 | 1003.9 |
| 20260507021544 | 11 | 232 | 3.2 | 11.3 | 0.18 | 1.22 | 1.22 | 97 | 1004.0 |
| 20260507020048 | 11 | 277 | 3.2 | 12.9 | 0.15 | 1.19 | 1.19 | 97 | 1004.3 |
| 20260507014551 | 12 | 186 | 4.8 | 14.5 | 0.10 | 1.14 | 1.14 | 97 | 1004.4 |
| 20260507013050 | 12 | 180 | 3.2 | 17.7 | 0.03 | 1.07 | 1.07 | 97 | 1004.6 |
| 20260507011547 | 12 | 223 | 3.2 | 17.7 | 0.00 | 1.04 | 1.04 | 97 | 1004.7 |
| 20260507010051 | 12 | 252 | 3.2 | 27.4 | 0.00 | 1.04 | 1.04 | 97 | 1005.0 |
| 20260507004549 | 12 | 217 | 4.8 | 17.7 | 0.00 | 1.04 | 1.04 | 97 | 1005.0 |
| 20260507003046 | 12 | 235 | 4.8 | 16.1 | 0.00 | 1.04 | 1.04 | 97 | 1005.2 |
| 20260507001547 | 12 | 198 | 4.8 | 17.7 | 0.00 | 1.04 | 1.04 | 97 | 1005.0 |
| 20260507000047 | 12 | 217 | 6.4 | 24.1 | 0.00 | 1.04 | 1.04 | 97 | 1005.0 |
| 20260506234544 | 12 | 327 | 3.2 | 17.7 | 0.03 | 1.04 | 1.04 | 97 | 1005.2 |
| 20260506233055 | 12 | 201 | 4.8 | 17.7 | 0.03 | 1.04 | 1.04 | 97 | 1005.3 |
| 20260506231548 | 12 | 308 | 8.0 | 25.7 | 0.03 | 1.04 | 1.04 | 97 | 1005.3 |
| 20260506230047 | 12 | 85 | 4.8 | 17.7 | 0.03 | 1.04 | 1.04 | 97 | 1005.5 |
| 20260506224544 | 12 | 265 | 4.8 | 16.1 | 0.00 | 1.02 | 1.02 | 97 | 1005.6 |
| 20260506223046 | 12 | 266 | 4.8 | 19.3 | 0.05 | 1.02 | 1.02 | 96 | 1005.8 |
| 20260506221545 | 12 | 163 | 4.8 | 24.1 | 0.10 | 1.02 | 1.02 | 96 | 1005.9 |
| 20260506220111 | 12 | 220 | 1.6 | 11.3 | 0.18 | 1.02 | 1.02 | 96 | 1005.9 |
| 20260506214549 | 12 | 149 | 3.2 | 14.5 | 0.20 | 1.02 | 1.02 | 96 | 1006.0 |
| 20260506213045 | 12 | 165 | 3.2 | 25.7 | 0.20 | 0.97 | 0.97 | 96 | 1006.1 |
| 20260506211545 | 12 | 205 | 1.6 | 14.5 | 0.25 | 0.91 | 0.91 | 96 | 1006.4 |
| 20260506210047 | 12 | 136 | 1.6 | 19.3 | 0.23 | 0.84 | 0.84 | 96 | 1006.4 |
| 20260506204548 | 12 | 236 | 4.8 | 14.5 | 0.36 | 0.81 | 0.81 | 95 | 1006.5 |
| 20260506203048 | 12 | 247 | 6.4 | 19.3 | 0.41 | 0.74 | 0.74 | 95 | 1006.5 |
| 20260506201548 | 12 | 0 | 4.8 | 16.1 | 0.46 | 0.66 | 0.66 | 96 | 1006.7 |
| 20260506200049 | 12 | 0 | 1.6 | 12.9 | 0.53 | 0.61 | 0.61 | 95 | 1006.7 |
| 20260506194544 | 12 | 136 | 3.2 | 14.5 | 0.43 | 0.46 | 0.46 | 95 | 1006.9 |
| 20260506193042 | 13 | 214 | 3.2 | 11.3 | 0.33 | 0.33 | 0.33 | 94 | 1007.4 |
| 20260506191552 | 13 | 205 | 3.2 | 16.1 | 0.20 | 0.20 | 0.20 | 92 | 1006.9 |
| 20260506190046 | 13 | 238 | 6.4 | 17.7 | 0.08 | 0.08 | 0.08 | 91 | 1006.9 |
| 20260506184550 | 13 | 160 | 8.0 | 22.5 | 0.03 | 0.03 | 0.03 | 88 | 1006.8 |
| 20260506183045 | 15 | 289 | 8.0 | 20.9 | 0.00 | 0.00 | 0.00 | 83 | 1006.9 |
| 20260506181549 | 15 | 198 | 6.4 | 22.5 | 0.00 | 0.00 | 0.00 | 81 | 1006.8 |
| 20260506180110 | 15 | 154 | 8.0 | 20.9 | 0.00 | 0.00 | 0.00 | 80 | 1007.0 |
| 20260506174545 | 15 | 207 | 4.8 | 29.0 | 0.00 | 0.00 | 0.00 | 81 | 1007.2 |
| 20260506173054 | 16 | 117 | 3.2 | 17.7 | 0.00 | 0.00 | 0.00 | 80 | 1007.5 |
| 20260506171546 | 16 | 182 | 6.4 | 17.7 | 0.00 | 0.00 | 0.00 | 80 | 1007.8 |
| 20260506170043 | 16 | 94 | 3.2 | 17.7 | 0.00 | 0.00 | 0.00 | 81 | 1007.9 |
| 20260506164547 | 16 | 209 | 6.4 | 22.5 | 0.00 | 0.00 | 0.00 | 81 | 1008.2 |
| 20260506163047 | 16 | 187 | 4.8 | 17.7 | 0.00 | 0.00 | 0.00 | 80 | 1008.5 |
| 20260506161554 | 16 | 115 | 4.8 | 14.5 | 0.00 | 0.00 | 0.00 | 81 | 1008.8 |
| 20260506160046 | 16 | 174 | 8.0 | 16.1 | 0.00 | 0.00 | 0.00 | 80 | 1008.8 |
| 20260506154551 | 16 | 211 | 3.2 | 22.5 | 0.00 | 0.00 | 0.00 | 80 | 1009.0 |
| 20260506153047 | 16 | 133 | 6.4 | 24.1 | 0.00 | 0.00 | 0.00 | 80 | 1008.8 |
| 20260506151547 | 16 | 251 | 4.8 | 20.9 | 0.00 | 0.00 | 0.00 | 81 | 1008.8 |
| 20260506150046 | 16 | 208 | 4.8 | 27.4 | 0.00 | 0.00 | 0.00 | 80 | 1008.6 |
| 20260506144559 | 16 | 181 | 4.8 | 19.3 | 0.00 | 0.00 | 0.00 | 79 | 1008.3 |
| 20260506143040 | 16 | 230 | 3.2 | 16.1 | 0.00 | 0.00 | 0.00 | 81 | 1008.7 |
| 20260506141550 | 16 | 202 | 6.4 | 19.3 | 0.00 | 0.00 | 0.00 | 80 | 1009.0 |
| 20260506140046 | 15 | 0 | 4.8 | 16.1 | 0.00 | 0.00 | 0.00 | 81 | 1009.3 |
| 20260506134546 | 15 | 149 | 3.2 | 14.5 | 0.00 | 0.00 | 0.00 | 81 | 1009.3 |
| 20260506133057 | 15 | 140 | 1.6 | 9.7 | 0.00 | 0.00 | 0.00 | 82 | 1009.1 |
| 20260506131539 | 15 | 130 | 4.8 | 14.5 | 0.00 | 0.00 | 0.00 | 81 | 1008.9 |
| 20260506130049 | 15 | 229 | 4.8 | 12.9 | 0.00 | 0.00 | 0.00 | 83 | 1009.2 |
| 20260506124546 | 14 | 0 | 4.8 | 12.9 | 0.00 | 0.00 | 0.00 | 83 | 1009.1 |
| 20260506123046 | 13 | 207 | 1.6 | 9.7 | 0.00 | 0.00 | 0.00 | 85 | 1009.2 |
| 20260506121546 | 13 | 117 | 1.6 | 12.9 | 0.00 | 0.00 | 0.00 | 85 | 1009.3 |
| 20260506120048 | 13 | 169 | 3.2 | 12.9 | 0.00 | 0.00 | 0.00 | 85 | 1009.7 |